Time;durP1;ratioP1;P1;durP2;ratioP2;P2;SDS_P1;SDS_P2;PMS_P1;PMS_P2;Temp;Humidity;BMP_temperature;BMP_pressure;BME280_temperature;BME280_humidity;BME280_pressure;Samples;Min_cycle;Max_cycle;Signal;HPM_P1;HPM_P2
2022/11/24 00:02:01;;;;;;;0.00;0.00;;;4.80;99.90;;;;;;5008445;28;20741;-75
2022/11/24 00:04:27;;;;;;;0.50;0.50;;;4.80;99.90;;;;;;5007648;28;20030;-74
2022/11/24 00:06:52;;;;;;;0.00;0.00;;;4.70;99.90;;;;;;5001995;28;20421;-75
2022/11/24 00:09:18;;;;;;;0.10;0.10;;;4.80;99.90;;;;;;5001695;28;20096;-74
2022/11/24 00:11:44;;;;;;;0.00;0.00;;;4.80;99.90;;;;;;5001824;28;20061;-75
2022/11/24 00:14:11;;;;;;;0.00;0.00;;;4.80;99.90;;;;;;5000741;28;20029;-75
2022/11/24 00:16:37;;;;;;;0.00;0.00;;;4.80;99.90;;;;;;5001695;28;20049;-75
2022/11/24 00:19:07;;;;;;;0.00;0.00;;;4.80;99.90;;;;;;5001440;28;20331;-76
2022/11/24 00:21:34;;;;;;;0.00;0.00;;;4.80;99.90;;;;;;5001328;28;20026;-74
2022/11/24 00:24:00;;;;;;;0.00;0.00;;;4.80;99.90;;;;;;5000947;28;20030;-74
2022/11/24 00:26:38;;;;;;;0.00;0.00;;;4.70;99.90;;;;;;5001394;28;20092;-75
2022/11/24 00:29:06;;;;;;;0.00;0.00;;;4.80;99.90;;;;;;5000070;28;20097;-75
2022/11/24 00:31:35;;;;;;;9.90;9.43;;;4.70;99.90;;;;;;4982685;28;20686;-75
2022/11/24 00:34:03;;;;;;;0.00;0.00;;;4.70;99.90;;;;;;4982609;28;20056;-75
2022/11/24 00:36:31;;;;;;;0.00;0.00;;;4.70;99.90;;;;;;5000437;28;20030;-75
2022/11/24 00:38:59;;;;;;;0.10;0.10;;;4.70;99.90;;;;;;5000445;28;20034;-74
2022/11/24 00:41:26;;;;;;;0.00;0.00;;;4.70;99.90;;;;;;5001300;28;20515;-75
2022/11/24 00:44:01;;;;;;;0.00;0.00;;;4.70;99.90;;;;;;5003038;28;20441;-74
2022/11/24 00:46:27;;;;;;;0.00;0.00;;;4.70;99.90;;;;;;5003718;28;20112;-74
2022/11/24 00:49:23;;;;;;;0.00;0.00;;;4.70;99.90;;;;;;5004386;28;20034;-75
2022/11/24 00:51:49;;;;;;;0.00;0.00;;;;;;;;;;5001057;28;20544;-75
2022/11/24 00:54:15;;;;;;;0.10;0.10;;;4.70;99.90;;;;;;5000289;28;20448;-75
2022/11/24 00:56:41;;;;;;;0.00;0.00;;;4.70;99.90;;;;;;4999981;28;20025;-74
2022/11/24 00:59:07;;;;;;;0.10;0.10;;;4.70;99.90;;;;;;5000176;28;20220;-74
2022/11/24 01:01:33;;;;;;;0.10;0.10;;;4.60;99.90;;;;;;5000626;28;20034;-75
2022/11/24 01:04:02;;;;;;;0.00;0.00;;;4.60;99.90;;;;;;5002051;28;20092;-75
2022/11/24 01:06:29;;;;;;;0.00;0.00;;;4.40;99.90;;;;;;5003691;28;20148;-75
2022/11/24 01:08:56;;;;;;;0.00;0.00;;;4.50;99.90;;;;;;5000607;28;20026;-75
2022/11/24 01:14:15;;;;;;;1.15;1.15;;;4.50;99.90;;;;;;5000254;28;20589;-75
2022/11/24 01:16:41;;;;;;;0.32;0.32;;;4.60;99.90;;;;;;5000210;28;20084;-75
2022/11/24 01:19:07;;;;;;;0.15;0.15;;;4.60;99.90;;;;;;5000786;28;20026;-74
2022/11/24 01:21:32;;;;;;;0.10;0.10;;;4.60;99.90;;;;;;5000076;28;20401;-75
2022/11/24 01:23:58;;;;;;;0.85;0.85;;;4.60;99.90;;;;;;4982035;28;20468;-75
2022/11/24 01:26:24;;;;;;;0.10;0.10;;;4.60;99.90;;;;;;5000228;28;20038;-75
2022/11/24 01:28:56;;;;;;;3.65;3.50;;;4.70;99.90;;;;;;4999784;28;20543;-75
2022/11/24 01:31:23;;;;;;;0.00;0.00;;;4.70;99.90;;;;;;5000092;28;20453;-75
2022/11/24 01:33:49;;;;;;;2.40;2.30;;;4.70;99.90;;;;;;4999663;28;20050;-75
2022/11/24 01:36:15;;;;;;;0.28;0.28;;;4.70;99.90;;;;;;5000117;28;20551;-75
2022/11/24 01:38:41;;;;;;;0.40;0.40;;;4.80;99.90;;;;;;5000087;28;20108;-75
2022/11/24 01:41:11;;;;;;;0.00;0.00;;;4.70;99.90;;;;;;4999548;28;20457;-75
2022/11/24 01:43:37;;;;;;;0.10;0.10;;;4.80;99.90;;;;;;4981442;28;20041;-75
2022/11/24 01:46:18;;;;;;;0.08;0.08;;;4.80;99.90;;;;;;4999865;28;20354;-75
2022/11/24 01:49:11;;;;;;;1.95;1.95;;;4.80;99.90;;;;;;4998814;28;20034;-75
2022/11/24 01:51:46;;;;;;;0.00;0.00;;;6.60;99.90;;;;;;4986277;28;20108;-75
2022/11/24 01:54:20;;;;;;;0.00;0.00;;;4.80;99.90;;;;;;4999447;28;20032;-75
2022/11/24 01:56:50;;;;;;;0.05;0.05;;;4.80;99.90;;;;;;4998985;28;20026;-75
2022/11/24 01:59:18;;;;;;;0.10;0.10;;;4.80;99.90;;;;;;4999037;28;20468;-75
2022/11/24 02:01:44;;;;;;;0.08;0.08;;;4.90;99.90;;;;;;4999810;28;20505;-75
2022/11/24 02:04:15;;;;;;;0.00;0.00;;;4.90;99.90;;;;;;4999639;28;20032;-74
2022/11/24 02:06:44;;;;;;;0.00;0.00;;;4.90;99.90;;;;;;4999519;28;20066;-75
2022/11/24 02:09:10;;;;;;;0.47;0.47;;;5.00;99.90;;;;;;4999167;28;20030;-75
2022/11/24 02:11:38;;;;;;;0.13;0.13;;;5.00;99.90;;;;;;4999399;28;20274;-75
2022/11/24 02:14:06;;;;;;;0.00;0.00;;;4.90;99.90;;;;;;4981414;28;20018;-75
2022/11/24 02:16:34;;;;;;;0.00;0.00;;;5.00;99.90;;;;;;4998863;28;20424;-76
2022/11/24 02:19:06;;;;;;;0.00;0.00;;;5.00;99.90;;;;;;5000343;28;20061;-75
2022/11/24 02:21:32;;;;;;;0.10;0.10;;;5.00;99.90;;;;;;4998707;28;20030;-75
2022/11/24 02:24:21;;;;;;;0.03;0.03;;;5.00;99.90;;;;;;4998376;28;20030;-75
2022/11/24 02:26:48;;;;;;;0.10;0.10;;;5.00;99.90;;;;;;5003466;28;20034;-75
2022/11/24 02:29:14;;;;;;;0.00;0.00;;;5.00;99.90;;;;;;5004688;28;20022;-75
2022/11/24 02:31:51;;;;;;;0.00;0.00;;;5.00;99.90;;;;;;4985942;28;20088;-75
2022/11/24 02:34:17;;;;;;;0.00;0.00;;;5.50;99.90;;;;;;5003246;28;20021;-75
2022/11/24 02:36:43;;;;;;;0.10;0.10;;;5.10;99.90;;;;;;5002822;28;20030;-74
2022/11/24 02:39:14;;;;;;;0.10;0.10;;;5.10;99.90;;;;;;5002885;28;20025;-75
2022/11/24 02:41:45;;;;;;;0.00;0.00;;;5.10;99.90;;;;;;5002928;28;20030;-75
2022/11/24 02:44:14;;;;;;;0.10;0.10;;;5.00;99.90;;;;;;5002772;28;20101;-75
2022/11/24 02:46:40;;;;;;;0.00;0.00;;;5.00;99.90;;;;;;5003342;28;20064;-75
2022/11/24 02:49:05;;;;;;;0.03;0.03;;;5.00;99.90;;;;;;5002786;28;20376;-75
2022/11/24 02:51:33;;;;;;;1.02;1.02;;;5.00;99.90;;;;;;5002541;28;20042;-76
2022/11/24 02:53:59;;;;;;;0.00;0.00;;;5.00;99.90;;;;;;4984521;28;20037;-75
2022/11/24 02:56:25;;;;;;;0.00;0.00;;;5.00;99.90;;;;;;5002307;28;20279;-75
2022/11/24 02:58:51;;;;;;;0.10;0.10;;;5.00;99.90;;;;;;5003609;28;20072;-75
2022/11/24 03:01:17;;;;;;;0.00;0.00;;;5.00;99.90;;;;;;5002909;28;20323;-75
2022/11/24 03:03:43;;;;;;;0.10;0.10;;;5.60;99.90;;;;;;5002795;28;20033;-75
2022/11/24 03:06:09;;;;;;;0.10;0.10;;;4.80;99.90;;;;;;5002859;28;20500;-75
2022/11/24 03:08:34;;;;;;;0.00;0.00;;;4.80;99.90;;;;;;5007874;28;20026;-75
2022/11/24 03:11:01;;;;;;;0.00;0.00;;;4.90;99.90;;;;;;5007974;28;20140;-76
2022/11/24 03:13:27;;;;;;;0.00;0.00;;;4.90;99.90;;;;;;5007984;28;20022;-75
2022/11/24 03:15:53;;;;;;;0.00;0.00;;;4.50;99.90;;;;;;4973882;28;20054;-74
2022/11/24 03:18:19;;;;;;;15.60;14.23;;;4.90;99.90;;;;;;5003549;28;20527;-75
2022/11/24 03:20:44;;;;;;;0.10;0.10;;;4.40;99.90;;;;;;5002628;28;20033;-74
2022/11/24 03:23:11;;;;;;;0.10;0.10;;;4.90;99.90;;;;;;5002292;28;20030;-75
2022/11/24 03:25:37;;;;;;;0.10;0.10;;;4.90;99.90;;;;;;5002450;28;20050;-74
2022/11/24 03:28:03;;;;;;;0.20;0.20;;;4.90;99.90;;;;;;5001837;28;20204;-74
2022/11/24 03:30:29;;;;;;;0.10;0.10;;;4.80;99.90;;;;;;4984128;28;20145;-75
2022/11/24 03:32:54;;;;;;;0.00;0.00;;;4.80;99.90;;;;;;5003089;28;20049;-75
2022/11/24 03:35:21;;;;;;;0.00;0.00;;;4.70;99.90;;;;;;5003566;28;20552;-75
2022/11/24 03:37:46;;;;;;;0.10;0.10;;;4.70;99.90;;;;;;5000657;28;20065;-74
2022/11/24 03:40:12;;;;;;;0.00;0.00;;;4.60;99.90;;;;;;5001795;28;20041;-75
2022/11/24 03:42:39;;;;;;;0.10;0.10;;;4.60;99.90;;;;;;4984206;28;20237;-74
2022/11/24 03:45:05;;;;;;;0.00;0.00;;;4.50;99.90;;;;;;5002053;28;20394;-75
2022/11/24 03:47:31;;;;;;;0.00;0.00;;;6.20;99.90;;;;;;5003099;28;20045;-75
2022/11/24 03:49:57;;;;;;;0.00;0.00;;;4.20;99.90;;;;;;5005877;28;20038;-75
2022/11/24 03:52:25;;;;;;;0.03;0.03;;;4.00;99.90;;;;;;5002533;28;20022;-75
2022/11/24 03:54:51;;;;;;;0.00;0.00;;;4.00;99.90;;;;;;5001812;28;20036;-74
2022/11/24 03:57:17;;;;;;;0.00;0.00;;;4.10;99.90;;;;;;5001808;28;20037;-75
2022/11/24 03:59:42;;;;;;;0.03;0.03;;;4.40;99.90;;;;;;5002007;28;20026;-75
2022/11/24 04:02:08;;;;;;;0.35;0.35;;;4.10;99.90;;;;;;5001308;28;20072;-75
2022/11/24 04:04:34;;;;;;;0.20;0.20;;;4.10;99.90;;;;;;5001526;28;20258;-75
2022/11/24 04:06:59;;;;;;;0.00;0.00;;;4.00;99.90;;;;;;5001400;28;20046;-75
2022/11/24 04:09:25;;;;;;;0.00;0.00;;;4.00;99.90;;;;;;5001005;28;20104;-74
2022/11/24 04:14:35;;;;;;;0.00;0.00;;;3.90;99.90;;;;;;5001075;28;20315;-75
2022/11/24 04:17:03;;;;;;;0.08;0.08;;;3.90;99.90;;;;;;4983494;28;20029;-75
2022/11/24 04:19:28;;;;;;;0.03;0.03;;;3.90;99.90;;;;;;5000958;28;20021;-74
2022/11/24 04:21:54;;;;;;;0.00;0.00;;;3.90;99.90;;;;;;5001113;28;20025;-75
2022/11/24 04:24:20;;;;;;;0.00;0.00;;;3.90;99.90;;;;;;4982859;28;20463;-75
2022/11/24 04:26:47;;;;;;;0.10;0.10;;;3.90;99.90;;;;;;5001664;28;20106;-75
2022/11/24 04:29:13;;;;;;;0.00;0.00;;;3.90;99.90;;;;;;5000985;28;20240;-75
2022/11/24 04:31:38;;;;;;;0.10;0.10;;;3.90;99.90;;;;;;4986071;28;20026;-75
2022/11/24 04:34:04;;;;;;;0.10;0.10;;;3.80;99.90;;;;;;5001155;28;20032;-74
2022/11/24 04:36:30;;;;;;;0.10;0.10;;;3.90;99.90;;;;;;5000732;28;20053;-74
2022/11/24 04:38:56;;;;;;;0.00;0.00;;;3.80;99.90;;;;;;5001371;28;20105;-75
2022/11/24 04:41:21;;;;;;;0.00;0.00;;;3.80;99.90;;;;;;5004592;28;20373;-75
2022/11/24 04:43:50;;;;;;;0.00;0.00;;;3.80;99.90;;;;;;5000161;28;20259;-75
2022/11/24 04:46:16;;;;;;;0.00;0.00;;;3.80;99.90;;;;;;4982454;28;20394;-74
2022/11/24 04:48:42;;;;;;;0.10;0.10;;;3.70;99.90;;;;;;5000492;28;20038;-74
2022/11/24 04:51:10;;;;;;;0.00;0.00;;;3.60;99.90;;;;;;4999970;28;20100;-74
2022/11/24 04:53:36;;;;;;;0.00;0.00;;;3.70;99.90;;;;;;4999840;28;20323;-75
2022/11/24 04:56:05;;;;;;;0.10;0.10;;;3.50;99.90;;;;;;5000217;28;20080;-75
2022/11/24 04:58:31;;;;;;;0.10;0.10;;;3.60;99.90;;;;;;4999960;28;20022;-75
2022/11/24 05:00:56;;;;;;;6.75;6.45;;;3.60;99.90;;;;;;4981864;28;20381;-75
2022/11/24 05:03:22;;;;;;;0.00;0.00;;;3.60;99.90;;;;;;5000218;28;20489;-74
2022/11/24 05:05:48;;;;;;;0.00;0.00;;;3.60;99.90;;;;;;5000105;28;20354;-75
2022/11/24 05:08:14;;;;;;;0.00;0.00;;;3.60;99.90;;;;;;5000109;28;20026;-75
2022/11/24 05:10:40;;;;;;;0.00;0.00;;;3.60;99.90;;;;;;5002024;28;20377;-75
2022/11/24 05:13:10;;;;;;;0.00;0.00;;;3.60;99.90;;;;;;5003373;28;20477;-75
2022/11/24 05:15:37;;;;;;;0.10;0.10;;;3.60;99.90;;;;;;5000257;28;20511;-74
2022/11/24 05:18:09;;;;;;;0.00;0.00;;;3.50;99.90;;;;;;5000215;28;20053;-75
2022/11/24 05:20:35;;;;;;;0.08;0.08;;;3.60;99.90;;;;;;5000621;28;20030;-75
2022/11/24 05:23:05;;;;;;;0.55;0.55;;;3.60;99.90;;;;;;4984582;28;20397;-75
2022/11/24 05:25:31;;;;;;;0.10;0.10;;;3.50;99.90;;;;;;4999905;28;20481;-74
2022/11/24 05:28:02;;;;;;;0.00;0.00;;;3.50;99.90;;;;;;4999875;28;20437;-75
2022/11/24 05:30:29;;;;;;;0.00;0.00;;;3.50;99.90;;;;;;5000545;28;20386;-75
2022/11/24 05:32:55;;;;;;;0.00;0.00;;;3.50;99.90;;;;;;4999928;28;20026;-74
2022/11/24 05:35:21;;;;;;;0.10;0.10;;;3.50;99.90;;;;;;4999262;28;20223;-75
2022/11/24 05:37:47;;;;;;;0.00;0.00;;;3.50;99.90;;;;;;4982176;28;20029;-75
2022/11/24 05:40:13;;;;;;;0.10;0.10;;;3.40;99.90;;;;;;5000288;28;20022;-75
2022/11/24 05:42:41;;;;;;;0.00;0.00;;;3.20;99.90;;;;;;5000015;28;20021;-75
2022/11/24 05:45:10;;;;;;;0.10;0.10;;;3.20;99.90;;;;;;5001615;28;20037;-75
2022/11/24 05:47:37;;;;;;;0.00;0.00;;;;;;;;;;4999326;28;20037;-75
2022/11/24 05:50:03;;;;;;;0.00;0.00;;;3.10;99.90;;;;;;4999562;28;20041;-75
2022/11/24 05:52:29;;;;;;;0.00;0.00;;;3.10;99.90;;;;;;4999188;28;20037;-75
2022/11/24 05:54:55;;;;;;;0.00;0.00;;;3.20;99.90;;;;;;4999282;28;20420;-75
2022/11/24 05:57:20;;;;;;;0.00;0.00;;;3.20;99.90;;;;;;4981472;28;20216;-75
2022/11/24 05:59:46;;;;;;;0.10;0.10;;;3.60;99.90;;;;;;5002716;28;20033;-75
2022/11/24 06:02:12;;;;;;;7.47;7.13;;;3.20;99.90;;;;;;5004614;28;20075;-75
2022/11/24 06:04:38;;;;;;;0.00;0.00;;;3.30;99.90;;;;;;5004011;28;20030;-75
2022/11/24 06:07:07;;;;;;;0.05;0.05;;;3.40;99.90;;;;;;5002957;28;20070;-75
2022/11/24 06:09:36;;;;;;;5.82;5.38;;;3.40;99.90;;;;;;5003266;28;20061;-76
2022/11/24 06:12:03;;;;;;;0.00;0.00;;;3.30;99.90;;;;;;5003264;28;20240;-75
2022/11/24 06:14:28;;;;;;;0.00;0.00;;;3.40;99.90;;;;;;5003102;28;20018;-75
2022/11/24 06:16:54;;;;;;;0.00;0.00;;;3.40;99.90;;;;;;5003126;28;20310;-75
2022/11/24 06:19:20;;;;;;;0.00;0.00;;;3.50;99.90;;;;;;5004007;28;20026;-75
2022/11/24 06:21:46;;;;;;;0.03;0.03;;;3.50;99.90;;;;;;4985763;28;20142;-75
2022/11/24 06:24:13;;;;;;;0.00;0.00;;;3.60;99.90;;;;;;4988861;28;20053;-75
2022/11/24 06:26:39;;;;;;;0.00;0.00;;;3.60;99.90;;;;;;5013213;28;20037;-75
2022/11/24 06:29:05;;;;;;;0.00;0.00;;;3.70;99.90;;;;;;5011518;28;20314;-76
2022/11/24 06:31:31;;;;;;;0.00;0.00;;;3.70;99.90;;;;;;5012674;28;20038;-75
2022/11/24 06:33:57;;;;;;;0.95;0.95;;;5.00;99.90;;;;;;5013176;28;20026;-73
2022/11/24 06:36:24;;;;;;;0.00;0.00;;;3.80;99.90;;;;;;5008986;28;20026;-75
2022/11/24 06:38:50;;;;;;;0.00;0.00;;;3.70;99.90;;;;;;5004501;28;20022;-74
2022/11/24 06:41:17;;;;;;;0.10;0.10;;;3.80;99.90;;;;;;5004236;28;20092;-75
2022/11/24 06:43:43;;;;;;;0.08;0.08;;;3.90;99.90;;;;;;5005053;28;20022;-77
2022/11/24 06:46:09;;;;;;;0.00;0.00;;;;;;;;;;5007090;28;20033;-75
2022/11/24 06:48:35;;;;;;;0.00;0.00;;;3.90;99.90;;;;;;5003615;28;20036;-75
2022/11/24 06:51:03;;;;;;;0.05;0.05;;;4.00;99.90;;;;;;5004082;28;20586;-76
2022/11/24 06:53:37;;;;;;;2.97;2.58;;;4.00;99.90;;;;;;5003932;28;20018;-75
2022/11/24 06:56:08;;;;;;;0.10;0.10;;;4.00;99.90;;;;;;5002576;28;20036;-75
2022/11/24 06:58:34;;;;;;;0.00;0.00;;;4.00;99.90;;;;;;5003123;28;20028;-75
2022/11/24 07:01:00;;;;;;;0.00;0.00;;;6.90;99.90;;;;;;5002833;28;20029;-75
2022/11/24 07:03:25;;;;;;;0.00;0.00;;;4.00;99.90;;;;;;5002843;28;20018;-75
2022/11/24 07:05:56;;;;;;;0.10;0.10;;;4.00;99.90;;;;;;5007091;28;20118;-75
2022/11/24 07:08:22;;;;;;;0.03;0.03;;;4.00;99.90;;;;;;5007004;28;20121;-75
2022/11/24 07:10:51;;;;;;;0.08;0.08;;;4.10;99.90;;;;;;4991352;28;20109;-75
2022/11/24 07:13:17;;;;;;;0.52;0.52;;;4.20;99.90;;;;;;4987417;28;20025;-75
2022/11/24 07:15:45;;;;;;;5.32;4.97;;;4.30;99.90;;;;;;5006503;28;20505;-75
2022/11/24 07:18:11;;;;;;;0.08;0.08;;;4.30;99.90;;;;;;5005369;28;20045;-75
2022/11/24 07:20:37;;;;;;;2.30;2.20;;;4.30;99.90;;;;;;4984190;28;20030;-75
2022/11/24 07:23:02;;;;;;;0.00;0.00;;;4.30;99.90;;;;;;4984418;28;20022;-75
2022/11/24 07:25:28;;;;;;;0.00;0.00;;;4.40;99.90;;;;;;5001672;28;20026;-75
2022/11/24 07:27:58;;;;;;;0.00;0.00;;;4.50;99.90;;;;;;5000946;28;20088;-73
2022/11/24 07:30:25;;;;;;;0.00;0.00;;;4.60;99.90;;;;;;4985199;28;20026;-75
2022/11/24 07:32:51;;;;;;;0.10;0.10;;;4.70;99.90;;;;;;5001636;28;20033;-73
2022/11/24 07:35:17;;;;;;;0.00;0.00;;;4.90;99.90;;;;;;5001624;28;20026;-73
2022/11/24 07:37:44;;;;;;;0.88;0.88;;;5.00;99.90;;;;;;5001998;28;20018;-73
2022/11/24 07:40:10;;;;;;;0.00;0.00;;;4.70;99.90;;;;;;5000541;28;20025;-75
2022/11/24 07:42:36;;;;;;;0.10;0.10;;;5.20;99.90;;;;;;5001279;28;20033;-73
2022/11/24 07:45:01;;;;;;;0.00;0.00;;;5.30;99.90;;;;;;5001251;28;20022;-73
2022/11/24 07:47:27;;;;;;;0.10;0.10;;;5.30;99.90;;;;;;5002131;28;20742;-75
2022/11/24 07:49:53;;;;;;;0.00;0.00;;;5.40;99.90;;;;;;5000735;28;20037;-73
2022/11/24 07:52:19;;;;;;;0.00;0.00;;;5.50;99.90;;;;;;5000784;28;20038;-73
2022/11/24 07:54:44;;;;;;;0.10;0.10;;;5.50;99.90;;;;;;4983929;28;20666;-73
2022/11/24 07:57:10;;;;;;;0.00;0.00;;;5.50;99.90;;;;;;4985607;28;20119;-75
2022/11/24 07:59:36;;;;;;;0.10;0.10;;;5.40;99.90;;;;;;5003498;28;20064;-75
2022/11/24 08:02:02;;;;;;;0.03;0.03;;;5.30;99.90;;;;;;5003525;28;20731;-76
2022/11/24 08:04:27;;;;;;;0.85;0.85;;;5.30;99.90;;;;;;5003706;28;20706;-75
2022/11/24 08:06:53;;;;;;;0.00;0.00;;;5.20;99.90;;;;;;5001313;28;20730;-75
2022/11/24 08:09:19;;;;;;;0.08;0.08;;;5.20;99.90;;;;;;5001452;28;20472;-75
2022/11/24 08:11:44;;;;;;;0.00;0.00;;;5.20;99.90;;;;;;5001949;28;20025;-75
2022/11/24 08:14:10;;;;;;;2.88;2.78;;;5.10;99.90;;;;;;5001280;28;20050;-73
2022/11/24 08:16:37;;;;;;;0.13;0.13;;;5.20;99.90;;;;;;5004536;28;20525;-75
2022/11/24 08:19:03;;;;;;;16.77;10.63;;;5.20;99.90;;;;;;5001338;28;20026;-75
2022/11/24 08:21:29;;;;;;;0.10;0.10;;;5.20;99.90;;;;;;5002610;28;20508;-73
2022/11/24 08:23:55;;;;;;;388.55;369.70;;;5.30;99.90;;;;;;5002515;28;20105;-75
2022/11/24 08:26:23;;;;;;;0.17;0.17;;;5.40;99.90;;;;;;5001053;28;20090;-75
2022/11/24 08:28:53;;;;;;;0.10;0.10;;;5.50;99.90;;;;;;4984466;28;20172;-73
2022/11/24 08:31:19;;;;;;;0.10;0.10;;;5.50;99.90;;;;;;5002439;28;20421;-73
2022/11/24 08:33:45;;;;;;;0.10;0.10;;;5.40;99.90;;;;;;5001828;28;20018;-73
2022/11/24 08:36:18;;;;;;;8.38;7.30;;;5.60;99.90;;;;;;4983532;28;20060;-73
2022/11/24 08:38:44;;;;;;;0.10;0.10;;;5.60;99.90;;;;;;5001555;28;20072;-73
2022/11/24 08:41:15;;;;;;;11.73;11.18;;;5.70;99.90;;;;;;4983521;28;20032;-75
2022/11/24 08:43:41;;;;;;;0.10;0.10;;;5.80;99.90;;;;;;5002102;28;20014;-75
2022/11/24 08:46:09;;;;;;;0.10;0.10;;;5.70;99.90;;;;;;4983964;28;20026;-75
2022/11/24 08:48:37;;;;;;;0.20;0.20;;;5.60;99.90;;;;;;5000688;28;20118;-75
2022/11/24 08:51:08;;;;;;;0.25;0.25;;;5.50;99.90;;;;;;5001655;28;20030;-74
2022/11/24 08:53:33;;;;;;;0.00;0.00;;;5.40;99.90;;;;;;5001372;28;20512;-74
2022/11/24 08:56:00;;;;;;;6.00;5.68;;;5.30;99.90;;;;;;4999767;28;20076;-75
2022/11/24 08:58:28;;;;;;;0.20;0.20;;;5.30;99.90;;;;;;5001663;28;20707;-75
2022/11/24 09:00:54;;;;;;;0.03;0.03;;;4.90;99.90;;;;;;4999463;28;20044;-74
2022/11/24 09:03:19;;;;;;;0.10;0.10;;;5.20;99.90;;;;;;5000743;28;20081;-75
2022/11/24 09:05:45;;;;;;;0.10;0.10;;;4.80;99.90;;;;;;5001010;28;20046;-75
2022/11/24 09:08:11;;;;;;;0.10;0.10;;;5.60;99.90;;;;;;5004665;28;20022;-76
2022/11/24 09:10:36;;;;;;;0.10;0.10;;;5.20;99.90;;;;;;5002166;28;20042;-75
2022/11/24 09:13:03;;;;;;;0.03;0.03;;;5.30;99.90;;;;;;4999800;28;20096;-75
2022/11/24 09:15:30;;;;;;;0.10;0.10;;;5.20;99.90;;;;;;5007418;28;20022;-76
2022/11/24 09:17:56;;;;;;;0.00;0.00;;;5.20;99.90;;;;;;5001972;28;20121;-75
2022/11/24 09:20:22;;;;;;;0.00;0.00;;;5.10;99.90;;;;;;5005045;28;20212;-75
2022/11/24 09:22:48;;;;;;;2.83;2.72;;;5.10;99.90;;;;;;5003862;28;20616;-75
2022/11/24 09:25:13;;;;;;;56.75;54.47;;;5.10;99.90;;;;;;5002741;28;20040;-74
2022/11/24 09:27:41;;;;;;;0.03;0.03;;;5.20;99.90;;;;;;5003661;28;20029;-75
2022/11/24 09:30:07;;;;;;;0.08;0.08;;;5.30;99.90;;;;;;5003774;28;20022;-75
2022/11/24 09:32:36;;;;;;;0.35;0.35;;;5.40;99.90;;;;;;5014520;28;20083;-77
2022/11/24 09:35:02;;;;;;;1.85;1.75;;;5.50;99.90;;;;;;5010970;28;20025;-75
2022/11/24 09:37:28;;;;;;;0.10;0.10;;;5.60;99.90;;;;;;5029500;28;20028;-75
2022/11/24 09:39:53;;;;;;;0.10;0.10;;;5.70;99.90;;;;;;5030323;28;20006;-77
2022/11/24 09:42:49;;;;;;;0.10;0.10;;;5.80;99.90;;;;;;5030465;28;20077;-76
2022/11/24 09:45:38;;;;;;;0.63;0.63;;;6.00;99.90;;;;;;5030922;28;20025;-75
2022/11/24 09:48:14;;;;;;;0.00;0.00;;;6.20;99.90;;;;;;5030690;28;20110;-76
2022/11/24 09:50:42;;;;;;;0.20;0.20;;;6.20;99.90;;;;;;5028145;28;20069;-78
2022/11/24 09:53:17;;;;;;;0.10;0.10;;;6.20;99.90;;;;;;5012075;28;20034;-75
2022/11/24 09:55:49;;;;;;;0.20;0.20;;;6.30;99.90;;;;;;5011793;28;20086;-75
2022/11/24 09:58:18;;;;;;;0.10;0.10;;;6.20;99.90;;;;;;5030599;28;20094;-76
2022/11/24 10:00:47;;;;;;;0.10;0.10;;;6.40;99.90;;;;;;5029975;28;20022;-75
2022/11/24 10:03:22;;;;;;;0.03;0.03;;;6.90;99.90;;;;;;5029246;28;20018;-75
2022/11/24 10:05:50;;;;;;;0.40;0.40;;;6.40;99.90;;;;;;5028874;28;20093;-76
2022/11/24 10:08:16;;;;;;;0.00;0.00;;;;;;;;;;5010751;28;20014;-78
2022/11/24 10:10:59;;;;;;;0.13;0.13;;;6.40;99.90;;;;;;5027405;28;20048;-75
2022/11/24 10:13:45;;;;;;;1.13;1.13;;;6.50;99.90;;;;;;5029272;28;20084;-76
2022/11/24 10:16:56;;;;;;;0.73;0.73;;;6.50;99.90;;;;;;5009258;28;20034;-76
2022/11/24 10:19:22;;;;;;;2.25;2.20;;;;;;;;;;4924197;29;20111;-79
2022/11/24 10:22:26;;;;;;;0.13;0.13;;;6.60;99.90;;;;;;4920675;29;20024;-83
2022/11/24 10:25:24;;;;;;;;;;;7.10;99.90;;;;;;4914675;29;20040;-81
2022/11/24 10:28:02;;;;;;;0.10;0.10;;;6.60;99.90;;;;;;4841813;29;19985;-80
2022/11/24 10:30:29;;;;;;;0.00;0.00;;;5.50;99.90;;;;;;4843768;29;20038;-77
2022/11/24 10:33:01;;;;;;;0.10;0.10;;;7.20;99.90;;;;;;4850607;29;20022;-75
2022/11/24 10:35:48;;;;;;;0.10;0.10;;;4.60;99.90;;;;;;4835845;29;20030;-74
2022/11/24 10:38:28;;;;;;;0.10;0.10;;;7.50;99.90;;;;;;4826910;29;20050;-75
2022/11/24 10:41:07;;;;;;;0.10;0.10;;;7.80;99.90;;;;;;4828556;29;20038;-75
2022/11/24 10:43:33;;;;;;;0.10;0.10;;;8.10;99.90;;;;;;4826928;29;20246;-76
2022/11/24 10:46:13;;;;;;;0.10;0.10;;;8.50;99.90;;;;;;4825964;29;20034;-75
2022/11/24 10:49:00;;;;;;;0.40;0.40;;;8.90;99.90;;;;;;4829118;29;20146;-75
2022/11/24 10:52:00;;;;;;;6.30;6.05;;;9.00;99.90;;;;;;4922198;29;20086;-75
2022/11/24 10:54:26;;;;;;;0.20;0.20;;;9.00;99.90;;;;;;4906692;29;20550;-75
2022/11/24 10:56:53;;;;;;;0.20;0.20;;;9.00;99.90;;;;;;4923061;29;20039;-74
2022/11/24 10:59:24;;;;;;;27.60;17.55;;;9.20;99.90;;;;;;4906095;29;20020;-74
2022/11/24 11:01:53;;;;;;;0.10;0.10;;;9.10;99.90;;;;;;4906088;29;20605;-74
2022/11/24 11:04:33;;;;;;;2.92;2.80;;;9.10;99.90;;;;;;4992155;28;20639;-74
2022/11/24 11:07:15;;;;;;;0.10;0.10;;;9.10;99.90;;;;;;5002477;28;20068;-75
2022/11/24 11:09:40;;;;;;;0.17;0.17;;;9.30;99.90;;;;;;5001973;28;20030;-75
2022/11/24 11:12:22;;;;;;;0.20;0.20;;;8.90;99.90;;;;;;5002351;28;20072;-75
2022/11/24 11:14:49;;;;;;;0.38;0.38;;;9.00;99.90;;;;;;5002204;28;20271;-74
2022/11/24 11:17:44;;;;;;;2.05;1.95;;;9.10;99.90;;;;;;4984032;28;20026;-75
2022/11/24 11:20:26;;;;;;;0.32;0.32;;;9.10;99.90;;;;;;4902581;29;20132;-74
2022/11/24 11:22:54;;;;;;;0.17;0.17;;;9.10;99.90;;;;;;4902953;29;20064;-74
2022/11/24 11:25:32;;;;;;;14.77;13.30;;;9.20;99.90;;;;;;4902490;29;20040;-74
2022/11/24 11:28:17;;;;;;;0.10;0.10;;;9.00;99.90;;;;;;4902729;29;20126;-74
2022/11/24 11:31:04;;;;;;;0.10;0.10;;;9.00;99.90;;;;;;4901814;29;20059;-75
2022/11/24 11:33:32;;;;;;;0.10;0.10;;;9.10;99.90;;;;;;4887155;29;20051;-74
2022/11/24 11:36:00;;;;;;;0.95;0.95;;;9.10;99.90;;;;;;4886612;29;20247;-74
2022/11/24 11:38:35;;;;;;;5.80;5.55;;;9.10;99.90;;;;;;4902360;29;20111;-74
2022/11/24 11:41:02;;;;;;;0.10;0.10;;;9.00;99.90;;;;;;4885908;29;20527;-75
2022/11/24 11:43:35;;;;;;;0.20;0.20;;;8.70;99.90;;;;;;4885996;29;20721;-74
2022/11/24 11:46:16;;;;;;;0.85;0.85;;;8.30;99.90;;;;;;4901851;29;20165;-74
2022/11/24 11:48:46;;;;;;;0.30;0.30;;;8.40;99.90;;;;;;4901645;29;20059;-74
2022/11/24 11:51:33;;;;;;;0.32;0.32;;;8.40;99.90;;;;;;4885495;29;20044;-74
2022/11/24 11:54:24;;;;;;;0.10;0.10;;;8.30;99.90;;;;;;4901927;29;20031;-74
2022/11/24 11:57:01;;;;;;;0.20;0.20;;;8.40;99.90;;;;;;4960149;28;20042;-74
2022/11/24 11:59:45;;;;;;;0.20;0.20;;;8.40;99.90;;;;;;5000967;28;20022;-75
2022/11/24 12:02:29;;;;;;;0.15;0.15;;;8.40;99.90;;;;;;5001193;28;20270;-74
2022/11/24 12:04:57;;;;;;;0.10;0.10;;;8.40;99.90;;;;;;5003049;28;20212;-75
2022/11/24 12:07:41;;;;;;;0.88;0.88;;;8.40;99.90;;;;;;5003198;28;20049;-74
2022/11/24 12:10:19;;;;;;;0.20;0.20;;;8.40;99.90;;;;;;5001649;28;20282;-74
2022/11/24 12:12:50;;;;;;;0.15;0.15;;;8.40;99.90;;;;;;5001143;28;20438;-74
2022/11/24 12:15:31;;;;;;;9.13;6.50;;;8.30;99.90;;;;;;5000866;28;20026;-74
2022/11/24 12:18:19;;;;;;;0.55;0.52;;;8.40;99.90;;;;;;5001135;28;20113;-74
2022/11/24 12:21:06;;;;;;;2.38;2.30;;;8.40;99.90;;;;;;4982777;28;20398;-74
2022/11/24 12:23:37;;;;;;;0.22;0.22;;;8.30;99.90;;;;;;5001997;28;20018;-74
2022/11/24 12:26:33;;;;;;;0.10;0.10;;;8.30;99.90;;;;;;5000646;28;20308;-75
2022/11/24 12:29:11;;;;;;;32.38;10.77;;;8.10;99.90;;;;;;4986560;28;20398;-76
2022/11/24 12:32:01;;;;;;;0.10;0.10;;;8.20;99.90;;;;;;5005400;28;20266;-76
2022/11/24 12:34:40;;;;;;;0.22;0.22;;;8.30;99.90;;;;;;4984993;28;20034;-75
2022/11/24 12:37:09;;;;;;;2.58;2.47;;;8.30;99.90;;;;;;5001252;28;20022;-74
2022/11/24 12:40:14;;;;;;;0.40;0.40;;;8.40;99.90;;;;;;5001632;28;20022;-74
2022/11/24 12:42:42;;;;;;;;;;;8.30;99.90;;;;;;5002689;28;20090;-74
2022/11/24 12:45:08;;;;;;;1.85;1.77;;;8.40;99.90;;;;;;5002243;28;20371;-74
2022/11/24 12:47:52;;;;;;;0.30;0.30;;;8.40;99.90;;;;;;5008829;28;20259;-74
2022/11/24 12:50:22;;;;;;;0.17;0.17;;;8.40;99.90;;;;;;5012993;28;20034;-75
2022/11/24 12:53:11;;;;;;;22.58;20.63;;;8.50;99.90;;;;;;5013793;28;20022;-74
2022/11/24 12:55:39;;;;;;;0.10;0.10;;;8.60;99.90;;;;;;4912846;29;20032;-73
2022/11/24 12:58:08;;;;;;;5.45;5.22;;;8.70;99.90;;;;;;4894741;29;20124;-74
2022/11/24 13:01:17;;;;;;;1.05;1.05;;;8.80;99.90;;;;;;4896840;29;20096;-74
2022/11/24 13:04:07;;;;;;;0.25;0.25;;;8.80;99.90;;;;;;4861928;29;20536;-76
2022/11/24 13:06:33;;;;;;;1.13;1.13;;;8.70;99.90;;;;;;4855828;29;20060;-74
2022/11/24 13:09:06;;;;;;;0.30;0.30;;;8.70;99.90;;;;;;4853649;29;20445;-74
2022/11/24 13:11:45;;;;;;;0.65;0.65;;;8.70;99.90;;;;;;4845936;29;20064;-75
2022/11/24 13:14:28;;;;;;;1.58;1.58;;;8.60;99.90;;;;;;4844663;29;20124;-74
2022/11/24 13:17:03;;;;;;;5.15;4.95;;;8.50;99.90;;;;;;4844713;29;20049;-75
2022/11/24 13:19:34;;;;;;;0.10;0.10;;;8.50;99.90;;;;;;4844660;29;20757;-74